Alvarado, Minnesota
Current Conditions -  °F | °C
As of 11:53 AM on Wednesday 28 Jan 2015 (Local Time) from KGFK Reporting Station
Haze Haze  
Wind Chill: -2°   Ceiling: 400
Heat Index:   Visibility: 3mi
Dew Point:   Wind: 7mph
Humidity: 92%   Direction: 200°SSW
Pressure: 29.78"   Gusts: NA
Location:  48.19°N, 97°W
Report Text: KGFK 281753Z 20006KT 3SM BR OVC004 01/00 A2978 RMK AO2 SLP096 T00110000 10011 20006 55001
Loading
Personal Weather Stations






























Interactive Weather Map New forecast layout! Learn more

10-Day Weather Forecast

Advertisements
Track Severe Weather on mobile